N330FX / N330FX 7700 Squawk Report (18th of March, 2019)

Aircraft E55P Reg No. N330FX Age N/A
Model EMB-505 Jet engines 2 First flight N/A
Registered 05-18 Rollout N/A Delivered 11-12-10
Construction No. 50500028 Line No. N/A Series N/A
ADSHEX A39662 Airline name Flight Options Owner Flight Options
Airfield based Cleveland-Cuyahoga County~OH~N First tracked 2018-07-31 22:30:00

Flight history for N330FX

Route Flight No Date Playback
???? N/A 2019-04-22 17:24:00
???? N/A 2019-04-20 15:37:00
???? N/A 2019-04-19 02:27:00
???? N/A 2019-04-14 15:05:00
???? N/A 2019-04-14 12:57:00
???? N/A 2019-04-12 20:46:00
???? N/A 2019-04-08 00:27:00
???? N/A 2019-04-06 16:03:00
???? N/A 2019-04-05 17:01:00
???? N/A 2019-04-05 14:32:00
???? N/A 2019-04-04 00:48:00
???? N/A 2019-04-02 18:34:00
Terrance B Lettsome Intl (EIS) - Melbourne Intl (MLB) OPT330 2019-04-02 13:32:00
Orlando Intl (MCO) - Terrance B Lettsome Intl (EIS) OPT330 2019-04-01 19:40:00
Dallas Love Fld (DAL) - Orlando Intl (MCO) OPT330 2019-03-31 17:15:00
???? N/A 2019-03-28 21:57:00
???? N/A 2019-03-28 00:35:00
???? N/A 2019-03-23 21:36:00
???? N/A 2019-03-21 21:56:00
???? N/A 2019-03-18 11:10:00
Time Lat Lon Altitude Heading Speed Vertical Rate
2019-03-18 11:09:08 GMT 30.710495 -81.178680 14,500 23 334 -5824
2019-03-18 11:09:01 GMT 30.701935 -81.183044 15,100 24 335 -6720
2019-03-18 11:08:22 GMT 30.646223 -81.213959 18,250 26 363 -4352
2019-03-18 11:08:18 GMT 30.638763 -81.218262 19,325 26 355 -4864
2019-03-18 11:08:11 GMT 30.628626 -81.224228 19,750 26 369 -4672
2019-03-18 11:08:03 GMT 30.615776 -81.231758 20,425 26 379 -5440
2019-03-18 11:07:59 GMT 30.608963 -81.235764 21,000 27 383 -5504
2019-03-18 11:07:56 GMT 30.605536 -81.237801 21,000 27 383 -5504
2019-03-18 11:07:48 GMT 30.591150 -81.246368 21,675 27 390 -5696
2019-03-18 11:07:39 GMT 30.578163 -81.254166 22,675 26 401 -6272
2019-03-18 11:07:28 GMT 30.560165 -81.263824 24,025 19 387 -8512
2019-03-18 11:07:16 GMT 30.539062 -81.271042 25,450 11 367 -7296
2019-03-18 11:07:06 GMT 30.524162 -81.273834 26,450 5 362 -5056
2019-03-18 11:06:57 GMT 30.506100 -81.274658 27,275 358 367 -4480
2019-03-18 11:06:45 GMT 30.488342 -81.272385 31,325 349 367 -7424
2019-03-18 11:06:36 GMT 30.471466 -81.267189 29,550 344 357 -8192
2019-03-18 11:06:22 GMT 30.449074 -81.259720 31,325 345 372 -7040
2019-03-18 11:06:13 GMT 30.435883 -81.255371 32,250 345 371 -6976
2019-03-18 11:06:02 GMT 30.417938 -81.249496 33,450 345 375 -8576
2019-03-18 11:05:51 GMT 30.399673 -81.243629 35,125 345 375 -7168
2019-03-18 11:05:40 GMT 30.380920 -81.237633 36,375 345 385 -7232
2019-03-18 11:05:29 GMT 30.362162 -81.231705 37,650 345 385 -7232
2019-03-18 11:05:20 GMT 30.343588 -81.225937 38,950 348 398 -4608
2019-03-18 11:05:08 GMT 30.323456 -81.222137 39,900 356 404 -6272
2019-03-18 11:04:59 GMT 30.306765 -81.221703 40,850 4 398 -6912
2019-03-18 11:04:56 GMT 30.302216 -81.221977 41,125 4 398 -6848
2019-03-18 11:04:49 GMT 30.282852 -81.225319 42,250 17 360 64
2019-03-18 11:04:46 GMT 30.267939 -81.229721 42,250 17 360 64
2019-03-18 11:04:38 GMT 30.267939 -81.229721 42,575 17 398 -1728
2019-03-18 11:04:27 GMT 30.249643 -81.236534 42,900 18 388 -1216
2019-03-18 11:04:24 GMT 30.244522 -81.238457 42,950 18 386 -768
2019-03-18 11:04:16 GMT 30.231861 -81.243294 43,025 18 381 -64
2019-03-18 11:04:12 GMT 30.225403 -81.245728 43,000 17 360 64
2019-03-18 11:04:06 GMT 30.214312 -81.249939 43,025 18 372 64
2019-03-18 11:03:59 GMT 30.202927 -81.254181 43,025 18 375 64
2019-03-18 11:03:51 GMT 30.187958 -81.259834 43,025 18 372 64
2019-03-18 11:03:43 GMT 30.177628 -81.263725 43,000 17 369 64
2019-03-18 11:03:40 GMT 30.172415 -81.265648 43,000 17 360 64
2019-03-18 11:03:33 GMT 30.160034 -81.270287 43,000 17 359 64
2019-03-18 11:03:30 GMT 30.154587 -81.272278 43,000 17 360 64
2019-03-18 11:03:26 GMT 30.148361 -81.274597 43,000 17 361 64
2019-03-18 11:03:22 GMT 30.143366 -81.276474 43,000 17 359 64
2019-03-18 11:03:15 GMT 30.132019 -81.280678 43,000 17 357 0
2019-03-18 11:03:12 GMT 30.127213 -81.282455 43,000 18 350 448
2019-03-18 11:03:07 GMT 30.119532 -81.285316 43,000 17 354 0
2019-03-18 11:03:00 GMT 30.108498 -81.289436 43,000 18 351 320
2019-03-18 11:02:57 GMT 30.104095 -81.291077 42,975 18 350 512
2019-03-18 11:02:51 GMT 30.086380 -81.297806 42,850 18 349 896
2019-03-18 11:02:45 GMT 30.086380 -81.297806 42,875 18 350 960
2019-03-18 11:02:40 GMT 30.077454 -81.301147 42,750 18 351 960
2019-03-18 11:02:36 GMT 30.069580 -81.304161 42,675 18 351 960
2019-03-18 11:02:32 GMT 30.065552 -81.305672 42,650 18 352 960
2019-03-18 11:02:29 GMT 30.059896 -81.307838 42,525 18 353 960
2019-03-18 11:02:24 GMT 30.053284 -81.310303 42,500 18 353 960
2019-03-18 11:02:19 GMT 30.045181 -81.313370 42,425 18 353 960
2019-03-18 11:02:14 GMT 30.037262 -81.316330 42,350 18 354 960
2019-03-18 11:02:10 GMT 30.032013 -81.318329 42,300 18 354 960
2019-03-18 11:02:07 GMT 30.026321 -81.320480 42,250 18 354 960
2019-03-18 11:02:03 GMT 30.020416 -81.322739 42,175 18 355 1024
2019-03-18 11:01:58 GMT 30.011391 -81.326126 42,075 18 355 1024
2019-03-18 11:01:51 GMT 30.000729 -81.330139 41,925 18 356 960
2019-03-18 11:01:47 GMT 29.994370 -81.332489 41,900 18 356 1024
2019-03-18 11:01:43 GMT 29.988098 -81.334854 41,025 18 359 1024
2019-03-18 11:01:39 GMT 29.983318 -81.336678 41,725 18 357 1024
2019-03-18 11:01:36 GMT 29.977890 -81.338737 41,700 18 358 1024
2019-03-18 11:01:32 GMT 29.971436 -81.341103 41,650 18 357 960
2019-03-18 11:01:28 GMT 29.959305 -81.345680 41,525 18 358 1024
2019-03-18 11:01:25 GMT 29.953991 -81.347664 41,525 18 358 1024
2019-03-18 11:01:21 GMT 29.953991 -81.347664 41,025 18 359 1024
2019-03-18 11:01:18 GMT 29.949568 -81.349312 41,425 18 358 1024
2019-03-18 11:01:15 GMT 29.943649 -81.351555 41,375 18 358 1024
2019-03-18 11:01:11 GMT 29.936441 -81.354256 41,250 17 359 1024
2019-03-18 11:01:06 GMT 29.930761 -81.356339 41,225 17 359 960
2019-03-18 11:01:03 GMT 29.926758 -81.357857 41,200 17 359 1024
2019-03-18 11:01:00 GMT 29.918976 -81.360764 41,100 17 359 1024
2019-03-18 11:00:57 GMT 29.915119 -81.362221 41,075 17 359 1024
2019-03-18 11:00:52 GMT 29.909254 -81.364426 41,000 17 359 960
2019-03-18 11:00:46 GMT 29.898514 -81.368393 40,900 18 359 960
2019-03-18 11:00:43 GMT 29.892654 -81.370605 40,850 18 359 1152
2019-03-18 11:00:38 GMT 29.885792 -81.373199 40,600 18 361 1472
2019-03-18 11:00:35 GMT 29.881323 -81.374870 40,700 18 361 1472
2019-03-18 11:00:31 GMT 29.869406 -81.379341 39,975 18 369 1472
2019-03-18 11:00:28 GMT 29.869406 -81.379341 40,500 18 363 1408
2019-03-18 11:00:25 GMT 29.864285 -81.381279 40,425 18 364 1472
2019-03-18 11:00:20 GMT 29.858276 -81.383553 40,350 18 365 1472
2019-03-18 11:00:16 GMT 29.850784 -81.386345 40,250 18 366 1472
2019-03-18 11:00:13 GMT 29.846649 -81.387878 40,225 18 367 1472
2019-03-18 11:00:10 GMT 29.840450 -81.390274 40,075 18 368 1472
2019-03-18 11:00:07 GMT 29.833374 -81.392899 39,975 18 369 1472
2019-03-18 11:00:03 GMT 29.828579 -81.394691 39,900 18 370 1472
2019-03-18 10:59:59 GMT 29.821922 -81.397217 39,800 18 371 1536
2019-03-18 10:59:55 GMT 29.815544 -81.399643 39,625 18 372 1472
2019-03-18 10:59:52 GMT 29.810471 -81.401527 39,625 18 373 1472
2019-03-18 10:59:49 GMT 29.806328 -81.403091 39,575 18 374 1472
2019-03-18 10:59:42 GMT 29.794130 -81.407669 39,375 18 376 1472
2019-03-18 10:59:39 GMT 29.789148 -81.409554 39,325 18 376 1472
2019-03-18 10:59:36 GMT 29.785192 -81.411064 39,250 18 376 1472
2019-03-18 10:59:32 GMT 29.779049 -81.413376 39,175 18 378 1536
2019-03-18 10:59:27 GMT 29.770935 -81.416405 39,050 18 380 1536
2019-03-18 10:59:22 GMT 29.762987 -81.419411 37,425 18 381 1472
2019-03-18 10:59:16 GMT 29.751022 -81.423904 38,750 18 382 1536
2019-03-18 10:59:11 GMT 29.744614 -81.426331 37,425 17 387 1472
2019-03-18 10:59:08 GMT 29.739716 -81.428185 38,575 18 383 1472
2019-03-18 10:59:05 GMT 29.734314 -81.430191 38,500 18 385 1472
2019-03-18 10:59:02 GMT 29.728226 -81.432510 38,400 18 385 1472
2019-03-18 10:58:59 GMT 29.722321 -81.434731 38,325 18 385 1536
2019-03-18 10:58:55 GMT 29.717133 -81.436646 38,250 18 386 1472
2019-03-18 10:58:51 GMT 29.708799 -81.439766 38,125 18 386 1472
2019-03-18 10:58:45 GMT 29.698334 -81.443710 37,975 18 387 1472
2019-03-18 10:58:39 GMT 29.690226 -81.446716 37,900 18 387 1536
2019-03-18 10:58:34 GMT 29.679659 -81.450645 37,700 18 388 1472
2019-03-18 10:58:27 GMT 29.668304 -81.454910 37,550 17 386 1472
2019-03-18 10:58:23 GMT 29.660526 -81.457756 37,425 17 386 1472
2019-03-18 10:58:18 GMT 29.652704 -81.460663 37,325 17 386 1472
2019-03-18 10:58:15 GMT 29.649216 -81.461929 37,275 17 386 1472
2019-03-18 10:58:11 GMT 29.642899 -81.464256 37,025 17 384 1792
2019-03-18 10:58:08 GMT 29.634888 -81.467216 37,050 17 385 1472
2019-03-18 10:58:04 GMT 29.628683 -81.469490 36,975 17 385 1472
2019-03-18 10:57:58 GMT 29.620026 -81.472725 36,850 17 384 1792
2019-03-18 10:57:55 GMT 29.613327 -81.475189 36,725 17 384 1856
2019-03-18 10:57:51 GMT 29.606369 -81.477730 36,600 17 385 1856
2019-03-18 10:57:46 GMT 29.598862 -81.480469 36,475 17 385 1856
2019-03-18 10:57:40 GMT 29.587646 -81.484589 36,250 17 385 1920
2019-03-18 10:57:37 GMT 29.584442 -81.485756 36,125 17 386 1856
2019-03-18 10:57:34 GMT 29.577522 -81.488289 36,075 17 386 1856
2019-03-18 10:57:27 GMT 29.565674 -81.492676 35,850 17 386 1920
2019-03-18 10:57:23 GMT 29.558622 -81.495293 35,800 17 386 1920
2019-03-18 10:57:17 GMT 29.550755 -81.498199 35,525 18 387 1920
2019-03-18 10:57:14 GMT 29.544098 -81.500732 35,450 18 387 1920
2019-03-18 10:57:06 GMT 29.529434 -81.506332 35,200 18 388 1856
2019-03-18 10:57:02 GMT 29.524687 -81.508217 35,100 19 389 1856
2019-03-18 10:56:59 GMT 29.519302 -81.510315 35,000 19 389 1920
2019-03-18 10:56:56 GMT 29.512535 -81.513062 34,875 19 389 1920
2019-03-18 10:56:53 GMT 29.507416 -81.515053 34,775 18 389 1856
2019-03-18 10:56:46 GMT 29.497499 -81.518608 34,600 15 382 1920
2019-03-18 10:56:43 GMT 29.484970 -81.522041 34,450 12 377 1920
2019-03-18 10:56:39 GMT 29.484970 -81.522041 34,375 11 374 1856
2019-03-18 10:56:36 GMT 29.478653 -81.523308 33,725 8 369 1920
2019-03-18 10:56:33 GMT 29.474689 -81.524048 33,725 8 369 1920
2019-03-18 10:56:29 GMT 29.467300 -81.525368 34,050 8 370 1920
2019-03-18 10:56:25 GMT 29.461029 -81.526482 33,925 8 369 1920
2019-03-18 10:56:21 GMT 29.449085 -81.528572 33,700 8 369 1920
2019-03-18 10:56:15 GMT 29.442078 -81.529808 33,575 8 369 1920
2019-03-18 10:56:12 GMT 29.439743 -81.530228 33,525 8 369 1920
2019-03-18 10:56:07 GMT 29.430838 -81.531799 33,350 8 369 1920
2019-03-18 10:56:04 GMT 29.425369 -81.532761 33,250 8 368 1920
2019-03-18 10:56:01 GMT 29.421799 -81.533394 33,200 8 368 1920
2019-03-18 10:55:57 GMT 29.413193 -81.534874 33,025 8 368 1920
2019-03-18 10:55:52 GMT 29.404348 -81.536430 32,875 8 368 1856
2019-03-18 10:55:46 GMT 29.395271 -81.538048 32,700 8 367 1792
2019-03-18 10:55:43 GMT 29.388380 -81.539238 32,575 8 367 1792
2019-03-18 10:55:40 GMT 29.385866 -81.539719 32,525 8 366 1856
2019-03-18 10:55:35 GMT 29.375813 -81.541496 32,350 8 366 1792
2019-03-18 10:55:32 GMT 29.371622 -81.542252 32,275 8 365 1792
2019-03-18 10:55:25 GMT 29.359240 -81.544456 32,050 8 364 1792
2019-03-18 10:55:21 GMT 29.353500 -81.545494 31,950 8 363 1792
2019-03-18 10:55:18 GMT 29.349335 -81.546234 31,875 8 363 1792
2019-03-18 10:55:13 GMT 29.340618 -81.547798 31,725 8 362 1792
2019-03-18 10:55:09 GMT 29.331757 -81.549347 31,650 8 361 1792
2019-03-18 10:55:05 GMT 29.326630 -81.550301 31,475 8 360 1792
2019-03-18 10:54:58 GMT 29.314087 -81.552467 31,250 8 359 1792
2019-03-18 10:54:53 GMT 29.306311 -81.553825 31,100 8 357 1792
2019-03-18 10:54:50 GMT 29.301048 -81.554749 31,000 8 357 1792
2019-03-18 10:54:47 GMT 29.297058 -81.555473 30,925 8 355 1792
2019-03-18 10:54:41 GMT 29.285980 -81.557381 30,725 8 353 2048
2019-03-18 10:54:36 GMT 29.279728 -81.558411 30,600 8 352 2176
2019-03-18 10:54:26 GMT 29.261806 -81.561371 30,200 7 352 2176
2019-03-18 10:54:18 GMT 29.248863 -81.563362 29,925 7 351 2176
2019-03-18 10:54:14 GMT 29.244919 -81.563927 29,825 7 350 2176
2019-03-18 10:54:05 GMT 29.228380 -81.566322 29,450 7 349 2176
2019-03-18 10:53:57 GMT 29.215021 -81.568153 28,775 6 348 2240
2019-03-18 10:53:53 GMT 29.210691 -81.568695 29,050 6 349 2176
2019-03-18 10:53:46 GMT 29.197266 -81.570419 28,575 6 347 2240
2019-03-18 10:53:43 GMT 29.194061 -81.570847 28,675 6 347 2240
2019-03-18 10:53:35 GMT 29.179548 -81.572571 28,350 5 346 2240
2019-03-18 10:53:32 GMT 29.175591 -81.573051 28,250 5 346 2176
2019-03-18 10:53:24 GMT 29.162064 -81.574593 27,950 5 346 2176
2019-03-18 10:53:21 GMT 29.159637 -81.574860 27,875 5 346 2240
2019-03-18 10:53:15 GMT 29.150312 -81.575912 27,675 5 345 2176
2019-03-18 10:53:11 GMT 29.143145 -81.576668 27,500 5 345 2176
2019-03-18 10:53:04 GMT 29.130249 -81.578011 27,200 5 344 2176
2019-03-18 10:53:01 GMT 29.125397 -81.578560 27,100 5 344 2176
2019-03-18 10:52:52 GMT 29.111572 -81.579987 26,775 5 343 2176
2019-03-18 10:52:45 GMT 29.100130 -81.581078 26,525 4 342 2176
2019-03-18 10:52:42 GMT 29.095139 -81.581566 26,400 4 342 2176
2019-03-18 10:52:39 GMT 29.091156 -81.581940 25,850 4 342 2240
2019-03-18 10:52:33 GMT 29.082962 -81.582733 26,125 4 342 2240
2019-03-18 10:52:29 GMT 29.071175 -81.583824 25,850 4 342 2048
2019-03-18 10:52:23 GMT 29.066612 -81.584206 25,750 4 342 2048
2019-03-18 10:52:17 GMT 29.056915 -81.585106 25,600 4 341 1984
2019-03-18 10:52:13 GMT 29.041986 -81.586411 25,275 4 341 1984
2019-03-18 10:52:08 GMT 29.041986 -81.586411 25,225 4 341 1984
2019-03-18 10:52:01 GMT 29.033049 -81.587219 25,025 4 339 2048
2019-03-18 10:51:56 GMT 29.025181 -81.587975 24,875 4 339 2048
2019-03-18 10:51:49 GMT 29.013840 -81.588959 24,625 4 338 2048
2019-03-18 10:51:46 GMT 29.008795 -81.589424 24,525 4 337 2048
2019-03-18 10:51:41 GMT 28.999191 -81.590340 24,300 4 336 2048
2019-03-18 10:51:36 GMT 28.992554 -81.590965 24,175 4 335 2048
2019-03-18 10:51:27 GMT 28.979465 -81.592232 23,825 4 334 2048
2019-03-18 10:51:24 GMT 28.975601 -81.592606 23,800 4 334 1984
2019-03-18 10:51:17 GMT 28.958588 -81.594246 23,425 4 332 2048
2019-03-18 10:51:06 GMT 28.942108 -81.595825 23,150 4 330 1152
2019-03-18 10:50:56 GMT 28.931625 -81.596832 23,025 4 327 128
2019-03-18 10:50:53 GMT 28.927139 -81.597252 23,000 4 324 64
2019-03-18 10:50:47 GMT 28.916931 -81.598312 23,000 5 317 256
2019-03-18 10:50:43 GMT 28.910934 -81.598892 23,000 5 315 320
2019-03-18 10:50:35 GMT 28.902054 -81.599846 22,925 5 308 768
2019-03-18 10:50:32 GMT 28.896790 -81.600426 22,900 5 307 896
2019-03-18 10:50:29 GMT 28.891159 -81.601006 22,825 5 293 2688
2019-03-18 10:50:25 GMT 28.887497 -81.601372 22,725 5 302 1216
2019-03-18 10:50:21 GMT 28.881056 -81.602081 22,675 5 298 1600
2019-03-18 10:50:13 GMT 28.868813 -81.603485 22,375 5 293 2880
2019-03-18 10:50:10 GMT 28.865479 -81.603859 22,050 5 293 2880
2019-03-18 10:50:05 GMT 28.859081 -81.604561 22,025 5 293 2944
2019-03-18 10:50:02 GMT 28.854126 -81.605125 21,825 5 294 2944
2019-03-18 10:49:59 GMT 28.850052 -81.605545 21,700 5 295 2880
2019-03-18 10:49:52 GMT 28.842270 -81.606285 21,450 5 295 2880
2019-03-18 10:49:48 GMT 28.837435 -81.606766 21,300 4 296 2880
2019-03-18 10:49:44 GMT 28.829754 -81.607521 21,000 4 295 2944
2019-03-18 10:49:39 GMT 28.823273 -81.608086 20,775 4 296 3008
2019-03-18 10:49:30 GMT 28.810295 -81.609192 20,300 4 296 3456
2019-03-18 10:49:26 GMT 28.806759 -81.609512 20,175 4 297 3584
2019-03-18 10:49:22 GMT 28.799881 -81.610039 19,850 3 300 3648
2019-03-18 10:49:19 GMT 28.796402 -81.610245 19,700 3 302 3648
2019-03-18 10:49:14 GMT 28.790745 -81.610649 19,450 3 303 3648
2019-03-18 10:49:11 GMT 28.785324 -81.610985 19,225 3 304 3712
2019-03-18 10:49:06 GMT 28.776718 -81.611519 18,850 2 306 3648
2019-03-18 10:49:01 GMT 28.770447 -81.611885 18,575 2 307 3648
2019-03-18 10:48:58 GMT 28.766190 -81.612099 18,400 2 309 3648
2019-03-18 10:48:53 GMT 28.759735 -81.612518 18,125 2 309 3648
2019-03-18 10:48:49 GMT 28.755178 -81.612747 17,925 2 311 3712
2019-03-18 10:48:46 GMT 28.745178 -81.613365 17,500 2 312 3776
2019-03-18 10:48:39 GMT 28.739914 -81.613678 17,275 3 314 3584
2019-03-18 10:48:34 GMT 28.731714 -81.614143 16,925 3 316 3200
2019-03-18 10:48:28 GMT 28.724167 -81.614632 16,675 3 316 3200
2019-03-18 10:48:25 GMT 28.717987 -81.615051 16,450 3 316 2944
2019-03-18 10:48:22 GMT 28.715748 -81.615227 16,425 3 316 2624
2019-03-18 10:48:17 GMT 28.708393 -81.615761 16,175 3 315 1728
2019-03-18 10:48:13 GMT 28.700775 -81.616325 16,025 4 311 960
2019-03-18 10:48:08 GMT 28.693216 -81.616943 15,925 4 307 1024
2019-03-18 10:48:04 GMT 28.688702 -81.617325 15,875 4 302 1024
2019-03-18 10:48:01 GMT 28.685209 -81.617592 15,825 4 300 1024
2019-03-18 10:47:56 GMT 28.678482 -81.618225 15,750 4 294 1280
2019-03-18 10:47:52 GMT 28.671011 -81.618889 15,625 4 288 1728
2019-03-18 10:47:46 GMT 28.664635 -81.619423 15,475 4 285 1536
2019-03-18 10:47:43 GMT 28.659466 -81.619911 15,400 4 282 1344
2019-03-18 10:47:40 GMT 28.656830 -81.620125 15,350 4 279 1344
2019-03-18 10:47:35 GMT 28.650808 -81.620605 15,250 3 274 1856
2019-03-18 10:47:30 GMT 28.643639 -81.621094 15,050 2 269 3072
2019-03-18 10:47:25 GMT 28.637741 -81.621391 14,325 1 269 3968
2019-03-18 10:47:22 GMT 28.632559 -81.621529 14,525 1 269 3968
2019-03-18 10:47:19 GMT 28.629299 -81.621635 14,400 1 269 4096
2019-03-18 10:47:15 GMT 28.624237 -81.621712 14,100 0 301 3264
2019-03-18 10:47:11 GMT 28.619200 -81.621689 13,825 359 275 4480
2019-03-18 10:47:04 GMT 28.611006 -81.621361 13,350 358 281 4544
2019-03-18 10:46:57 GMT 28.600298 -81.620934 12,750 359 287 4224
2019-03-18 10:46:54 GMT 28.596249 -81.620827 12,550 0 293 4032
2019-03-18 10:46:48 GMT 28.588257 -81.620758 12,275 0 296 3648
2019-03-18 10:46:42 GMT 28.581863 -81.620773 11,850 0 301 3264
2019-03-18 10:46:39 GMT 28.575533 -81.620720 11,650 0 303 3456
2019-03-18 10:46:35 GMT 28.571297 -81.620667 11,475 0 305 3520
2019-03-18 10:46:31 GMT 28.566175 -81.620552 11,275 359 312 2432
2019-03-18 10:46:27 GMT 28.558867 -81.620392 10,900 359 313 1216
2019-03-18 10:46:21 GMT 28.551086 -81.620178 10,875 359 312 256
2019-03-18 10:46:18 GMT 28.545973 -81.620071 10,875 359 307 -64
2019-03-18 10:46:15 GMT 28.543076 -81.619965 10,875 359 300 0
2019-03-18 10:46:10 GMT 28.536709 -81.619858 10,875 0 296 192
2019-03-18 10:46:06 GMT 28.529022 -81.619705 10,850 0 288 768
2019-03-18 10:46:00 GMT 28.522522 -81.619652 10,800 0 281 896
2019-03-18 10:45:53 GMT 28.512039 -81.619598 10,675 0 275 1792
2019-03-18 10:45:50 GMT 28.509056 -81.619583 10,600 0 273 2368
2019-03-18 10:45:43 GMT 28.501328 -81.619476 10,400 359 271 3392
2019-03-18 10:45:39 GMT 28.495136 -81.619263 10,025 359 275 4096
2019-03-18 10:45:33 GMT 28.481689 -81.618645 9,500 358 285 3392
2019-03-18 10:45:29 GMT 28.481689 -81.618645 9,350 358 288 3136
2019-03-18 10:45:25 GMT 28.476097 -81.618294 9,125 357 293 2176
2019-03-18 10:45:18 GMT 28.467344 -81.617645 8,925 356 296 640
2019-03-18 10:45:13 GMT 28.461712 -81.617218 8,875 357 294 128
2019-03-18 10:45:10 GMT 28.455231 -81.616745 8,875 357 295 -320
2019-03-18 10:45:07 GMT 28.452587 -81.616516 8,875 357 295 -384
2019-03-18 10:45:03 GMT 28.437832 -81.615280 8,925 356 294 0
2019-03-18 10:44:57 GMT 28.437832 -81.615280 8,925 356 295 192
2019-03-18 10:44:51 GMT 28.429413 -81.614525 8,900 356 296 128
2019-03-18 10:44:46 GMT 28.423864 -81.613983 8,850 355 287 1408
2019-03-18 10:44:41 GMT 28.416733 -81.613205 8,800 353 283 1984
2019-03-18 10:44:35 GMT 28.408859 -81.611938 8,600 350 278 1792
2019-03-18 10:44:29 GMT 28.400869 -81.610054 8,425 348 274 1792
2019-03-18 10:44:24 GMT 28.395700 -81.608490 8,250 343 263 3072
2019-03-18 10:44:20 GMT 28.391092 -81.606712 8,050 338 258 3072
2019-03-18 10:44:14 GMT 28.384872 -81.603012 7,775 322 247 3072
2019-03-18 10:44:10 GMT 28.380661 -81.598679 7,500 309 239 3840
2019-03-18 10:44:04 GMT 28.376816 -81.592445 7,125 301 236 3840
2019-03-18 10:43:58 GMT 28.374428 -81.587433 6,825 298 233 4032
2019-03-18 10:43:53 GMT 28.371826 -81.581566 6,450 297 232 3968
2019-03-18 10:43:49 GMT 28.369398 -81.576073 6,125 296 230 3712
2019-03-18 10:43:43 GMT 28.366699 -81.569580 5,750 295 230 3776
2019-03-18 10:43:37 GMT 28.364731 -81.564720 5,475 296 232 4032
2019-03-18 10:43:29 GMT 28.360794 -81.555420 4,900 297 232 4096
2019-03-18 10:43:26 GMT 28.359421 -81.552361 4,700 296 233 4672
2019-03-18 10:43:21 GMT 28.357086 -81.546654 4,300 294 238 4288
2019-03-18 10:43:15 GMT 28.354614 -81.540054 3,925 293 248 2752
2019-03-18 10:43:10 GMT 28.352501 -81.534119 3,700 292 255 1792
2019-03-18 10:43:06 GMT 28.350498 -81.528358 3,575 292 259 1792
2019-03-18 10:42:56 GMT 28.345938 -81.514946 3,175 291 255 3072
2019-03-18 10:42:48 GMT 28.342941 -81.504822 2,775 287 250 2880
2019-03-18 10:42:45 GMT 28.342352 -81.501534 2,650 277 246 2368
2019-03-18 10:42:30 GMT 28.343609 -81.482849 2,250 275 255 128
2019-03-18 10:42:15 GMT 28.346636 -81.461090 1,900 261 260 -128
2019-03-18 10:42:10 GMT 28.346960 -81.456894 1,900 266 257 0
2019-03-18 10:41:58 GMT 28.344955 -81.441177 1,900 292 251 0
2019-03-18 10:41:54 GMT 28.342726 -81.435135 1,900 301 248 -512
2019-03-18 10:41:51 GMT 28.341469 -81.432655 1,900 303 247 -640
2019-03-18 10:41:41 GMT 28.333275 -81.422478 1,950 325 237 384
2019-03-18 10:41:30 GMT 28.323715 -81.416824 1,900 347 225 128
2019-03-18 10:41:20 GMT 28.312885 -81.415367 1,850 5 199 1152
2019-03-18 10:40:38 GMT 28.290541 -81.437340 -50 58 124 -64
2019-03-18 10:36:54 GMT 28.289165 -81.442215 0 13
2019-03-18 10:36:40 GMT 28.289612 -81.441399 0 13
2019-03-18 10:36:33 GMT 28.289818 -81.441040 0 13
2019-03-18 10:36:22 GMT 28.290173 -81.440384 0 13

Making use of Plane Finder data

You are free to use the raw flight data, aircraft information and images provided in this report for your own purposes provided the data is correctly attributed to Plane Finder. We ask that you please credit Plane Finder and link to planefinder.net in close proximity to the content.

Optionally one of the following logos (no smaller then 150x24px) can be used and must link to planefinder.net

Embedding the Plane Finder map

You are welcome to embed the Plane Finder playback map on your website to offer visitors a more interactive experience. We suggest using the following HTML code:

<iframe src="//planefinder.net/data/report/N330FX-N330FX-7700-squawk-2019-03-18/map" width="800" height="600" seamless="seamless"></iframe>

Where our data comes from

Plane Finder has a global network of data feeds and antenna radars that receive data broadcast directly from aircraft. The primary technologies used are ADS-B and MLAT. We also show feeds from the FAA and a FLARM glider feed.

Click here to find out more about the Plane Finder network.

How we collect our data